createdAt,value
2023-01-13T00:00:22.460Z,102001.94
2023-01-13T00:01:28.117Z,101999.13
2023-01-13T00:02:30.516Z,102001.91
2023-01-13T00:03:34.200Z,101997.28
2023-01-13T00:04:36.670Z,101990.25
2023-01-13T00:05:40.105Z,101995.47
2023-01-13T00:06:42.486Z,101989.44
2023-01-13T00:07:46.568Z,101989.84
2023-01-13T00:08:51.134Z,101989.66
2023-01-13T00:09:54.876Z,101988.25
2023-01-13T00:10:57.337Z,101986.03
2023-01-13T00:12:01.056Z,101985.66
2023-01-13T00:13:05.290Z,101984.66
2023-01-13T00:14:09.062Z,101979.00
2023-01-13T00:15:13.484Z,101985.03
2023-01-13T00:16:19.220Z,101975.53
2023-01-13T00:17:22.998Z,101974.50
2023-01-13T00:18:27.066Z,101971.47
2023-01-13T00:19:30.122Z,101969.84
2023-01-13T00:20:33.895Z,101970.88
2023-01-13T00:21:37.342Z,101976.69
2023-01-13T00:22:41.413Z,101961.34
2023-01-13T00:23:44.501Z,101967.16
2023-01-13T00:24:49.349Z,101958.69
2023-01-13T00:25:52.270Z,101958.59
2023-01-13T00:26:55.851Z,101954.53
2023-01-13T00:27:58.165Z,101961.75
2023-01-13T00:29:01.969Z,101960.88
2023-01-13T00:30:05.979Z,101948.75
2023-01-13T00:31:10.908Z,101949.41
2023-01-13T00:32:13.559Z,101950.47
2023-01-13T00:33:17.163Z,101947.25
2023-01-13T00:34:19.843Z,101954.16
2023-01-13T00:35:23.185Z,101961.84
2023-01-13T00:36:26.179Z,101955.19
2023-01-13T00:37:29.483Z,101960.41
2023-01-13T00:38:33.465Z,101955.16
2023-01-13T00:39:36.865Z,101956.91
2023-01-13T00:40:40.748Z,101955.31
2023-01-13T00:42:01.650Z,101952.66
2023-01-13T00:43:22.616Z,101947.84
2023-01-13T00:44:26.268Z,101957.72
2023-01-13T00:45:28.958Z,101943.44
2023-01-13T00:46:32.317Z,101948.28
2023-01-13T00:47:34.828Z,101954.16
2023-01-13T00:48:38.392Z,101958.41
2023-01-13T00:49:40.663Z,101951.38
2023-01-13T00:50:44.196Z,101952.66
2023-01-13T00:51:46.712Z,101959.94
2023-01-13T00:52:50.440Z,101959.19
2023-01-13T00:53:52.770Z,101948.34
2023-01-13T00:54:56.112Z,101947.69
2023-01-13T00:56:04.293Z,101943.69
2023-01-13T00:57:07.823Z,101944.50
2023-01-13T00:58:10.037Z,101943.28
2023-01-13T00:59:14.775Z,101938.63
2023-01-13T01:00:17.846Z,101944.47
2023-01-13T01:01:23.215Z,101943.47
2023-01-13T01:02:26.003Z,101944.28
2023-01-13T01:03:30.029Z,101944.28
2023-01-13T01:04:32.863Z,101942.28
2023-01-13T01:05:36.295Z,101944.69
2023-01-13T01:06:38.781Z,101946.94
2023-01-13T01:07:42.014Z,101951.16
2023-01-13T01:08:44.691Z,101943.94
2023-01-13T01:09:48.521Z,101945.13
2023-01-13T01:10:50.849Z,101942.56
2023-01-13T01:11:55.613Z,101941.94
2023-01-13T01:12:58.473Z,101944.81
2023-01-13T01:14:04.000Z,101946.22
2023-01-13T01:15:10.051Z,101947.00
2023-01-13T01:16:15.772Z,101942.38
2023-01-13T01:17:18.329Z,101935.91
2023-01-13T01:18:21.712Z,101944.34
2023-01-13T01:19:24.732Z,101942.75
2023-01-13T01:20:28.023Z,101950.19
2023-01-13T01:21:30.488Z,101939.50
2023-01-13T01:22:34.066Z,101940.72
2023-01-13T01:23:37.265Z,101943.34
2023-01-13T01:24:40.705Z,101947.50
2023-01-13T01:25:43.372Z,101947.38
2023-01-13T01:26:47.708Z,101947.75
2023-01-13T01:27:51.394Z,101949.38
2023-01-13T01:28:55.583Z,101953.44
2023-01-13T01:29:57.965Z,101958.13
2023-01-13T01:31:02.170Z,101957.06
2023-01-13T01:32:04.620Z,101959.88
2023-01-13T01:33:08.251Z,101962.50
2023-01-13T01:34:10.928Z,101963.06
2023-01-13T01:35:14.191Z,101967.25
2023-01-13T01:36:18.151Z,101961.03
2023-01-13T01:37:21.560Z,101957.41
2023-01-13T01:38:24.133Z,101959.84
2023-01-13T01:39:27.684Z,101955.41
2023-01-13T01:40:30.189Z,101954.06
2023-01-13T01:41:35.620Z,101958.47
2023-01-13T01:42:56.511Z,101962.09
2023-01-13T01:44:06.768Z,101962.44
2023-01-13T01:45:17.998Z,101963.81
2023-01-13T01:46:21.455Z,101951.97
2023-01-13T01:47:25.180Z,101960.97
2023-01-13T01:48:31.475Z,101965.34
2023-01-13T01:49:37.387Z,101967.59
2023-01-13T01:50:41.482Z,101966.78
2023-01-13T01:51:49.890Z,101970.28
2023-01-13T01:52:58.025Z,101974.84
2023-01-13T01:54:03.367Z,101971.44
2023-01-13T01:55:10.522Z,101968.59
2023-01-13T01:56:13.179Z,101965.97
2023-01-13T01:57:21.172Z,101971.25
2023-01-13T01:58:29.255Z,101975.47
2023-01-13T01:59:37.545Z,101972.03
2023-01-13T02:00:40.003Z,101980.69
2023-01-13T02:01:44.534Z,101987.72
2023-01-13T02:02:50.009Z,101982.13
2023-01-13T02:03:59.761Z,101984.94
2023-01-13T02:05:02.877Z,101982.13
2023-01-13T02:06:07.735Z,101982.75
2023-01-13T02:07:10.311Z,101987.53
2023-01-13T02:08:15.390Z,101993.41
2023-01-13T02:09:17.893Z,101999.69
2023-01-13T02:10:23.498Z,102005.09
2023-01-13T02:11:49.827Z,102010.34
2023-01-13T02:12:55.353Z,102006.13
2023-01-13T02:13:57.869Z,102011.13
2023-01-13T02:15:07.300Z,102012.97
2023-01-13T02:16:19.301Z,102015.13
2023-01-13T02:17:37.081Z,102014.81
2023-01-13T02:18:55.037Z,102018.41
2023-01-13T02:20:31.898Z,102019.59
2023-01-13T02:22:15.896Z,102023.00
2023-01-13T02:24:16.781Z,102027.63
2023-01-13T02:25:49.001Z,102021.41
2023-01-13T02:27:27.703Z,102022.22
2023-01-13T02:29:09.385Z,102016.22
2023-01-13T02:30:41.867Z,102020.72
2023-01-13T02:31:51.301Z,102022.34
2023-01-13T02:33:09.320Z,102017.34
2023-01-13T02:34:21.243Z,102015.09
2023-01-13T02:35:30.337Z,102019.91
2023-01-13T02:36:40.990Z,102010.69
2023-01-13T02:37:44.997Z,102014.31
2023-01-13T02:38:53.874Z,102012.69
2023-01-13T02:39:59.923Z,102022.53
2023-01-13T02:41:22.478Z,102019.56
2023-01-13T02:42:50.219Z,102017.94
2023-01-13T02:44:10.469Z,102016.72
2023-01-13T02:45:19.946Z,102011.88
2023-01-13T02:46:26.664Z,101998.44
2023-01-13T02:47:32.997Z,102005.28
2023-01-13T02:48:38.540Z,102003.25
2023-01-13T02:49:45.281Z,102003.44
2023-01-13T02:50:53.057Z,101994.34
2023-01-13T02:52:03.710Z,101996.16
2023-01-13T02:53:13.195Z,101992.75
2023-01-13T02:54:21.027Z,101995.38
2023-01-13T02:55:31.299Z,101992.34
2023-01-13T02:56:44.862Z,101985.13
2023-01-13T02:57:49.867Z,101983.53
2023-01-13T02:58:56.026Z,101992.38
2023-01-13T03:00:00.396Z,101989.53
2023-01-13T03:01:04.346Z,101986.94
2023-01-13T03:02:10.535Z,101979.91
2023-01-13T03:03:13.772Z,101994.59
2023-01-13T03:04:47.807Z,101989.19
2023-01-13T03:05:55.769Z,101998.03
2023-01-13T03:07:07.518Z,101999.63
2023-01-13T03:08:33.644Z,102005.84
2023-01-13T03:09:44.637Z,102008.88
2023-01-13T03:11:04.250Z,102009.69
2023-01-13T03:12:15.833Z,102008.69
2023-01-13T03:13:31.739Z,102009.50
2023-01-13T03:14:42.051Z,102012.91
2023-01-13T03:15:53.845Z,102016.50
2023-01-13T03:17:15.831Z,102015.88
2023-01-13T03:18:31.104Z,102010.56
2023-01-13T03:19:44.362Z,102016.50
2023-01-13T03:20:54.955Z,102008.25
2023-01-13T03:22:05.528Z,102008.06
2023-01-13T03:23:14.228Z,102006.47
2023-01-13T03:24:22.125Z,102013.47
2023-01-13T03:25:29.131Z,102006.06
2023-01-13T03:26:39.070Z,102014.50
2023-01-13T03:27:50.953Z,102006.47
2023-01-13T03:28:59.377Z,102009.28
2023-01-13T03:30:08.470Z,102002.47
2023-01-13T03:31:14.228Z,102010.50
2023-01-13T03:32:27.097Z,102022.53
2023-01-13T03:33:34.642Z,102018.91
2023-01-13T03:34:46.054Z,102024.75
2023-01-13T03:35:52.392Z,102022.75
2023-01-13T03:36:58.036Z,102016.50
2023-01-13T03:38:05.864Z,102009.28
2023-01-13T03:39:13.629Z,102012.09
2023-01-13T03:40:19.091Z,102013.50
2023-01-13T03:41:28.109Z,102009.25
2023-01-13T03:42:33.815Z,102009.25
2023-01-13T03:43:58.892Z,102020.69
2023-01-13T03:45:06.805Z,102019.22
2023-01-13T03:46:16.796Z,102015.84
2023-01-13T03:47:27.849Z,102015.22
2023-01-13T03:48:36.150Z,102010.63
2023-01-13T03:49:47.008Z,102018.81
2023-01-13T03:50:52.358Z,102018.47
2023-01-13T03:51:59.824Z,102020.38
2023-01-13T03:53:07.006Z,102026.94
2023-01-13T03:54:15.651Z,102022.06
2023-01-13T03:55:21.352Z,102024.13
2023-01-13T03:56:30.954Z,102029.34
2023-01-13T03:57:39.995Z,102025.16
2023-01-13T03:58:47.387Z,102024.16
2023-01-13T03:59:54.662Z,102020.13
2023-01-13T04:01:02.769Z,102035.38
2023-01-13T04:02:10.997Z,102032.00
2023-01-13T04:03:25.401Z,102034.97
2023-01-13T04:04:33.555Z,102033.38
2023-01-13T04:05:43.229Z,102029.56
2023-01-13T04:06:51.737Z,102031.94
2023-01-13T04:08:03.775Z,102035.69
2023-01-13T04:09:15.305Z,102036.16
2023-01-13T04:10:24.076Z,102033.03
2023-01-13T04:11:32.851Z,102031.41
2023-01-13T04:12:58.008Z,102038.03
2023-01-13T04:14:04.897Z,102044.53
2023-01-13T04:15:08.547Z,102039.63
2023-01-13T04:16:13.542Z,102036.69
2023-01-13T04:17:16.693Z,102031.91
2023-01-13T04:18:25.331Z,102025.81
2023-01-13T04:19:28.360Z,102028.09
2023-01-13T04:20:32.274Z,102019.91
2023-01-13T04:21:36.069Z,102024.03
2023-01-13T04:22:39.686Z,102022.66
2023-01-13T04:23:42.335Z,102024.03
2023-01-13T04:24:46.074Z,102021.47
2023-01-13T04:25:49.619Z,102024.84
2023-01-13T04:26:53.210Z,102020.25
2023-01-13T04:27:55.979Z,102018.88
2023-01-13T04:28:59.370Z,102026.38
2023-01-13T04:30:02.748Z,102024.94
2023-01-13T04:31:06.315Z,102024.97
2023-01-13T04:32:08.956Z,102025.91
2023-01-13T04:33:12.905Z,102024.53
2023-01-13T04:34:17.111Z,102018.88
2023-01-13T04:35:21.112Z,102019.00
2023-01-13T04:36:27.757Z,102019.81
2023-01-13T04:37:30.305Z,102020.03
2023-01-13T04:38:34.055Z,102028.31
2023-01-13T04:39:37.318Z,102023.50
2023-01-13T04:40:41.334Z,102020.31
2023-01-13T04:41:59.196Z,102015.84
2023-01-13T04:43:03.054Z,102016.25
2023-01-13T04:44:05.906Z,102018.91
2023-01-13T04:45:11.405Z,102017.91
2023-01-13T04:46:14.797Z,102016.09
2023-01-13T04:47:18.487Z,102022.72
2023-01-13T04:48:20.994Z,102028.69
2023-01-13T04:49:25.976Z,102032.84
2023-01-13T04:50:28.396Z,102028.13
2023-01-13T04:51:31.833Z,102040.38
2023-01-13T04:52:34.616Z,102039.38
2023-01-13T04:53:38.132Z,102038.59
2023-01-13T04:54:40.386Z,102041.00
2023-01-13T04:55:44.545Z,102046.88
2023-01-13T04:56:46.959Z,102048.09
2023-01-13T04:57:50.611Z,102044.22
2023-01-13T04:58:53.079Z,102045.06
2023-01-13T04:59:56.358Z,102042.63
2023-01-13T05:00:59.624Z,102032.22
2023-01-13T05:02:02.334Z,102045.88
2023-01-13T05:03:05.892Z,102040.44
2023-01-13T05:04:11.799Z,102039.63
2023-01-13T05:05:17.054Z,102046.28
2023-01-13T05:06:19.650Z,102049.91
2023-01-13T05:07:22.975Z,102041.66
2023-01-13T05:08:25.336Z,102051.91
2023-01-13T05:09:28.777Z,102052.72
2023-01-13T05:10:31.274Z,102052.72
2023-01-13T05:11:52.344Z,102047.47
2023-01-13T05:13:13.340Z,102043.25
2023-01-13T05:14:33.963Z,102027.59
2023-01-13T05:15:54.911Z,102026.19
2023-01-13T05:17:01.634Z,102025.75
2023-01-13T05:18:04.902Z,102035.03
2023-01-13T05:19:08.304Z,102039.03
2023-01-13T05:20:12.062Z,102031.59
2023-01-13T05:21:34.635Z,102037.44
2023-01-13T05:22:55.351Z,102038.44
2023-01-13T05:24:16.481Z,102037.66
2023-01-13T05:25:22.967Z,102046.28
2023-01-13T05:26:25.494Z,102051.31
2023-01-13T05:27:29.554Z,102055.72
2023-01-13T05:28:33.798Z,102048.09
2023-01-13T05:29:36.059Z,102050.31
2023-01-13T05:30:42.572Z,102046.88
2023-01-13T05:31:45.100Z,102047.25
2023-01-13T05:32:48.817Z,102057.13
2023-01-13T05:33:51.266Z,102052.31
2023-01-13T05:34:56.014Z,102057.44
2023-01-13T05:36:03.101Z,102054.91
2023-01-13T05:37:11.109Z,102043.50
2023-01-13T05:38:15.505Z,102048.69
2023-01-13T05:39:18.363Z,102042.38
2023-01-13T05:40:39.342Z,102038.34
2023-01-13T05:42:00.323Z,102041.19
2023-01-13T05:43:21.713Z,102038.00
2023-01-13T05:44:24.003Z,102044.66
2023-01-13T05:45:27.345Z,102049.88
2023-01-13T05:46:31.229Z,102057.56
2023-01-13T05:47:33.895Z,102048.31
2023-01-13T05:48:39.506Z,102050.69
2023-01-13T05:49:42.331Z,102047.47
2023-01-13T05:50:46.357Z,102046.69
2023-01-13T05:51:48.929Z,102049.88
2023-01-13T05:52:53.803Z,102048.47
2023-01-13T05:53:57.118Z,102049.91
2023-01-13T05:54:59.386Z,102048.06
2023-01-13T05:56:05.518Z,102048.09
2023-01-13T05:57:07.981Z,102045.84
2023-01-13T05:58:12.266Z,102044.28
2023-01-13T05:59:14.580Z,102045.88
2023-01-13T06:00:19.358Z,102044.84
2023-01-13T06:01:22.769Z,102047.88
2023-01-13T06:02:26.658Z,102048.88
2023-01-13T06:03:30.177Z,102047.06
2023-01-13T06:04:32.712Z,102045.22
2023-01-13T06:05:36.795Z,102050.28
2023-01-13T06:06:40.262Z,102050.63
2023-01-13T06:07:42.536Z,102059.88
2023-01-13T06:08:47.533Z,102055.03
2023-01-13T06:09:49.868Z,102060.47
2023-01-13T06:10:53.255Z,102063.25
2023-01-13T06:11:55.870Z,102067.13
2023-01-13T06:12:59.427Z,102076.34
2023-01-13T06:14:01.877Z,102077.19
2023-01-13T06:15:05.728Z,102080.97
2023-01-13T06:16:09.717Z,102081.19
2023-01-13T06:17:15.014Z,102081.03
2023-01-13T06:18:18.392Z,102080.44
2023-01-13T06:19:20.753Z,102087.66
2023-01-13T06:20:25.303Z,102090.06
2023-01-13T06:21:27.762Z,102100.09
2023-01-13T06:22:33.059Z,102095.72
2023-01-13T06:23:38.716Z,102101.97
2023-01-13T06:24:45.924Z,102098.53
2023-01-13T06:25:54.993Z,102101.53
2023-01-13T06:26:57.560Z,102113.16
2023-01-13T06:28:01.904Z,102114.78
2023-01-13T06:29:04.587Z,102106.56
2023-01-13T06:30:09.514Z,102113.41
2023-01-13T06:31:13.481Z,102106.38
2023-01-13T06:32:19.283Z,102109.34
2023-01-13T06:33:27.085Z,102105.56
2023-01-13T06:34:30.011Z,102101.31
2023-01-13T06:35:37.032Z,102103.53
2023-01-13T06:36:44.107Z,102098.34
2023-01-13T06:37:51.601Z,102092.50
2023-01-13T06:38:57.724Z,102101.31
2023-01-13T06:40:04.196Z,102098.28
2023-01-13T06:41:08.180Z,102094.03
2023-01-13T06:42:28.748Z,102094.44
2023-01-13T06:43:32.152Z,102099.63
2023-01-13T06:44:36.245Z,102101.72
2023-01-13T06:45:39.531Z,102106.56
2023-01-13T06:46:42.882Z,102110.19
2023-01-13T06:47:45.381Z,102105.97
2023-01-13T06:48:48.915Z,102103.31
2023-01-13T06:49:51.234Z,102105.34
2023-01-13T06:50:54.904Z,102105.34
2023-01-13T06:51:57.368Z,102110.56
2023-01-13T06:53:00.916Z,102112.41
2023-01-13T06:54:03.871Z,102114.16
2023-01-13T06:55:09.339Z,102116.56
2023-01-13T06:56:13.027Z,102115.97
2023-01-13T06:57:15.237Z,102122.25
2023-01-13T06:58:18.569Z,102124.25
2023-01-13T06:59:21.012Z,102124.25
2023-01-13T07:00:25.864Z,102130.69
2023-01-13T07:01:29.429Z,102129.28
2023-01-13T07:02:31.621Z,102125.69
2023-01-13T07:03:34.862Z,102127.25
2023-01-13T07:04:37.273Z,102119.44
2023-01-13T07:05:42.432Z,102119.22
2023-01-13T07:06:44.801Z,102109.81
2023-01-13T07:07:48.113Z,102110.56
2023-01-13T07:08:50.489Z,102116.41
2023-01-13T07:09:53.982Z,102116.63
2023-01-13T07:10:59.465Z,102117.44
2023-01-13T07:12:01.816Z,102114.22
2023-01-13T07:13:23.692Z,102123.03
2023-01-13T07:14:44.838Z,102121.06
2023-01-13T07:15:58.290Z,102122.50
2023-01-13T07:17:00.543Z,102128.13
2023-01-13T07:18:04.309Z,102125.88
2023-01-13T07:19:06.543Z,102126.88
2023-01-13T07:20:10.863Z,102132.91
2023-01-13T07:21:18.809Z,102127.72
2023-01-13T07:22:22.117Z,102122.69
2023-01-13T07:23:24.935Z,102130.94
2023-01-13T07:24:28.191Z,102140.81
2023-01-13T07:25:32.524Z,102139.78
2023-01-13T07:26:38.204Z,102138.56
2023-01-13T07:27:41.919Z,102137.16
2023-01-13T07:28:44.746Z,102133.91
2023-01-13T07:29:48.149Z,102127.47
2023-01-13T07:30:51.471Z,102126.09
2023-01-13T07:31:55.009Z,102119.59
2023-01-13T07:32:59.298Z,102123.47
2023-01-13T07:34:01.814Z,102116.84
2023-01-13T07:35:06.121Z,102123.28
2023-01-13T07:36:09.072Z,102127.50
2023-01-13T07:37:12.884Z,102122.69
2023-01-13T07:38:15.725Z,102119.47
2023-01-13T07:39:19.000Z,102114.44
2023-01-13T07:40:21.313Z,102121.28
2023-01-13T07:41:42.829Z,102124.69
2023-01-13T07:43:05.464Z,102124.28
2023-01-13T07:44:10.914Z,102125.72
2023-01-13T07:45:13.167Z,102127.53
2023-01-13T07:46:16.677Z,102130.13
2023-01-13T07:47:21.875Z,102134.97
2023-01-13T07:48:25.029Z,102129.94
2023-01-13T07:49:29.374Z,102140.41
2023-01-13T07:50:32.737Z,102138.59
2023-01-13T07:51:37.278Z,102139.19
2023-01-13T07:52:40.609Z,102136.78
2023-01-13T07:53:43.120Z,102144.00
2023-01-13T07:54:46.684Z,102145.63
2023-01-13T07:55:49.895Z,102153.25
2023-01-13T07:56:52.049Z,102147.66
2023-01-13T07:57:57.110Z,102148.44
2023-01-13T07:59:00.572Z,102152.69
2023-01-13T08:00:04.905Z,102143.00
2023-01-13T08:01:12.200Z,102140.78
2023-01-13T08:02:16.038Z,102136.19
2023-01-13T08:03:19.663Z,102141.41
2023-01-13T08:04:23.007Z,102141.41
2023-01-13T08:05:27.228Z,102152.25
2023-01-13T08:06:31.197Z,102149.63
2023-01-13T08:07:34.125Z,102147.44
2023-01-13T08:08:38.407Z,102152.25
2023-01-13T08:09:40.760Z,102147.00
2023-01-13T08:10:45.162Z,102150.44
2023-01-13T08:12:10.400Z,102157.28
2023-01-13T08:13:20.118Z,102145.81
2023-01-13T08:14:23.605Z,102150.88
2023-01-13T08:15:25.939Z,102158.28
2023-01-13T08:16:29.276Z,102150.06
2023-01-13T08:17:31.864Z,102157.06
2023-01-13T08:18:36.860Z,102163.47
2023-01-13T08:19:39.114Z,102167.91
2023-01-13T08:20:42.755Z,102173.53
2023-01-13T08:21:46.593Z,102172.56
2023-01-13T08:22:48.994Z,102175.72
2023-01-13T08:23:52.723Z,102172.66
2023-01-13T08:24:55.051Z,102179.91
2023-01-13T08:26:01.515Z,102177.63
2023-01-13T08:27:04.224Z,102186.50
2023-01-13T08:28:08.076Z,102187.91
2023-01-13T08:29:14.918Z,102196.44
2023-01-13T08:30:18.570Z,102187.19
2023-01-13T08:31:22.467Z,102187.22
2023-01-13T08:32:24.805Z,102189.84
2023-01-13T08:33:28.989Z,102191.63
2023-01-13T08:34:32.354Z,102184.53
2023-01-13T08:35:37.307Z,102186.56
2023-01-13T08:36:41.304Z,102179.16
2023-01-13T08:37:43.988Z,102172.13
2023-01-13T08:38:47.575Z,102173.56
2023-01-13T08:39:50.340Z,102177.13
2023-01-13T08:40:53.884Z,102176.09
2023-01-13T08:41:56.112Z,102181.66
2023-01-13T08:43:00.015Z,102181.22
2023-01-13T08:44:03.348Z,102182.19
2023-01-13T08:45:12.168Z,102180.72
2023-01-13T08:46:15.461Z,102177.72
2023-01-13T08:47:17.659Z,102172.25
2023-01-13T08:48:20.937Z,102165.06
2023-01-13T08:49:24.584Z,102164.81
2023-01-13T08:50:27.982Z,102161.38
2023-01-13T08:51:31.273Z,102157.09
2023-01-13T08:52:34.635Z,102161.00
2023-01-13T08:53:38.208Z,102166.59
2023-01-13T08:54:41.551Z,102163.63
2023-01-13T08:55:45.148Z,102178.69
2023-01-13T08:56:47.833Z,102180.13
2023-01-13T08:57:51.131Z,102181.84
2023-01-13T08:58:53.466Z,102196.38
2023-01-13T08:59:56.995Z,102185.25
2023-01-13T09:01:06.246Z,102186.53
2023-01-13T09:02:14.939Z,102179.31
2023-01-13T09:03:17.704Z,102186.91
2023-01-13T09:04:23.704Z,102194.72
2023-01-13T09:05:27.516Z,102203.09
2023-01-13T09:06:29.922Z,102210.22
2023-01-13T09:07:33.373Z,102220.66
2023-01-13T09:08:35.925Z,102230.41
2023-01-13T09:09:39.690Z,102232.72
2023-01-13T09:10:43.112Z,102236.28
2023-01-13T09:12:07.411Z,102238.97
2023-01-13T09:13:13.756Z,102241.28
2023-01-13T09:14:19.087Z,102243.44
2023-01-13T09:15:22.722Z,102236.00
2023-01-13T09:16:26.719Z,102244.81
2023-01-13T09:17:30.171Z,102242.78
2023-01-13T09:18:33.576Z,102239.47
2023-01-13T09:19:37.040Z,102240.34
2023-01-13T09:20:40.472Z,102246.38
2023-01-13T09:21:42.757Z,102256.44
2023-01-13T09:22:46.073Z,102259.06
2023-01-13T09:23:48.347Z,102261.31
2023-01-13T09:24:51.627Z,102258.22
2023-01-13T09:25:54.895Z,102253.94
2023-01-13T09:26:57.237Z,102254.97
2023-01-13T09:28:00.518Z,102251.50
2023-01-13T09:29:02.906Z,102261.41
2023-01-13T09:30:07.587Z,102259.78
2023-01-13T09:31:10.852Z,102257.94
2023-01-13T09:32:16.849Z,102260.94
2023-01-13T09:33:37.722Z,102253.97
2023-01-13T09:34:59.546Z,102249.47
2023-01-13T09:36:03.167Z,102240.13
2023-01-13T09:37:07.006Z,102234.81
2023-01-13T09:38:10.230Z,102233.38
2023-01-13T09:39:12.401Z,102227.75
2023-01-13T09:40:19.806Z,102223.75
2023-01-13T09:41:43.610Z,102227.56
2023-01-13T09:43:10.661Z,102223.03
2023-01-13T09:44:19.909Z,102214.19
2023-01-13T09:45:26.577Z,102218.16
2023-01-13T09:46:44.250Z,102215.13
2023-01-13T09:47:57.759Z,102214.41
2023-01-13T09:49:03.734Z,102226.16
2023-01-13T09:50:18.410Z,102228.38
2023-01-13T09:51:29.758Z,102233.91
2023-01-13T09:52:32.074Z,102234.84
2023-01-13T09:53:39.596Z,102238.31
2023-01-13T09:54:44.074Z,102240.09
2023-01-13T09:55:47.340Z,102242.00
2023-01-13T09:56:50.719Z,102237.03
2023-01-13T09:57:54.361Z,102254.16
2023-01-13T09:58:57.437Z,102247.75
2023-01-13T10:00:01.138Z,102248.41
2023-01-13T10:01:17.358Z,102248.56
2023-01-13T10:02:47.757Z,102263.78
2023-01-13T10:03:52.627Z,102253.44
2023-01-13T10:05:14.979Z,102254.81
2023-01-13T10:06:22.348Z,102245.88
2023-01-13T10:07:25.610Z,102253.97
2023-01-13T10:08:32.770Z,102249.97
2023-01-13T10:09:47.585Z,102256.78
2023-01-13T10:10:53.891Z,102267.25
2023-01-13T10:12:18.375Z,102263.53
2023-01-13T10:13:23.139Z,102269.31
2023-01-13T10:14:33.308Z,102275.66
2023-01-13T10:15:36.144Z,102268.03
2023-01-13T10:16:46.038Z,102266.03
2023-01-13T10:17:56.209Z,102259.31
2023-01-13T10:19:07.885Z,102257.66
2023-01-13T10:20:22.467Z,102258.81
2023-01-13T10:21:56.732Z,102262.06
2023-01-13T10:23:13.118Z,102266.09
2023-01-13T10:24:25.408Z,102262.91
2023-01-13T10:25:43.605Z,102270.41
2023-01-13T10:26:55.570Z,102274.63
2023-01-13T10:28:09.299Z,102263.09
2023-01-13T10:29:24.960Z,102263.97
2023-01-13T10:30:34.112Z,102267.53
2023-01-13T10:31:37.769Z,102265.59
2023-01-13T10:32:45.557Z,102266.34
2023-01-13T10:33:49.433Z,102265.91
2023-01-13T10:34:57.206Z,102266.56
2023-01-13T10:36:02.583Z,102263.53
2023-01-13T10:37:07.446Z,102259.38
2023-01-13T10:38:16.549Z,102249.47
2023-01-13T10:39:21.354Z,102242.78
2023-01-13T10:40:25.767Z,102244.84
2023-01-13T10:41:29.469Z,102238.03
2023-01-13T10:42:31.862Z,102233.97
2023-01-13T10:43:35.179Z,102238.31
2023-01-13T10:44:48.317Z,102233.50
2023-01-13T10:45:59.814Z,102230.94
2023-01-13T10:47:03.212Z,102231.63
2023-01-13T10:48:13.552Z,102230.34
2023-01-13T10:49:32.831Z,102235.88
2023-01-13T10:50:38.859Z,102230.34
2023-01-13T10:51:46.132Z,102237.28
2023-01-13T10:53:01.390Z,102235.50
2023-01-13T10:54:20.493Z,102228.28
2023-01-13T10:55:28.824Z,102231.75
2023-01-13T10:56:34.742Z,102224.66
2023-01-13T10:57:37.190Z,102226.38
2023-01-13T10:58:40.746Z,102226.13
2023-01-13T10:59:44.274Z,102229.22
2023-01-13T11:01:00.666Z,102226.91
2023-01-13T11:02:19.883Z,102233.63
2023-01-13T11:03:35.549Z,102229.31
2023-01-13T11:04:40.067Z,102230.56
2023-01-13T11:07:28.244Z,102239.53
2023-01-13T11:08:43.980Z,102243.88
2023-01-13T11:09:46.479Z,102243.91
2023-01-13T11:11:26.176Z,102239.25
2023-01-13T11:12:32.511Z,102238.19
2023-01-13T11:15:39.687Z,102240.44
2023-01-13T11:16:53.124Z,102236.50
2023-01-13T11:18:02.885Z,102232.69
2023-01-13T11:19:12.907Z,102233.72
2023-01-13T11:20:22.149Z,102229.28
2023-01-13T11:21:34.746Z,102233.69
2023-01-13T11:22:43.348Z,102228.63
2023-01-13T11:23:51.425Z,102228.88
2023-01-13T11:24:58.744Z,102225.63
2023-01-13T11:26:06.702Z,102243.22
2023-01-13T11:27:16.152Z,102233.22
2023-01-13T11:28:36.696Z,102243.56
2023-01-13T11:29:45.508Z,102239.53
2023-01-13T11:30:56.869Z,102237.94
2023-01-13T11:32:09.696Z,102229.75
2023-01-13T11:33:31.817Z,102237.47
2023-01-13T11:34:38.154Z,102234.06
2023-01-13T11:35:45.404Z,102234.84
2023-01-13T11:36:52.587Z,102236.56
2023-01-13T11:38:02.082Z,102238.66
2023-01-13T11:39:19.375Z,102238.09
2023-01-13T11:40:29.032Z,102235.28
2023-01-13T11:41:42.176Z,102232.84
2023-01-13T11:42:50.008Z,102233.09
2023-01-13T11:43:57.687Z,102238.84
2023-01-13T11:45:08.539Z,102234.78
2023-01-13T11:46:11.366Z,102240.84
2023-01-13T11:47:15.324Z,102241.31
2023-01-13T11:48:23.059Z,102240.75
2023-01-13T11:49:28.674Z,102236.88
2023-01-13T11:50:36.389Z,102239.88
2023-01-13T11:51:43.710Z,102233.81
2023-01-13T11:53:11.374Z,102235.47
2023-01-13T11:54:36.477Z,102234.75
2023-01-13T11:55:48.260Z,102230.44
2023-01-13T11:57:31.061Z,102221.19
2023-01-13T11:59:05.021Z,102224.03
2023-01-13T12:00:27.094Z,102219.53
2023-01-13T12:01:52.485Z,102223.56
2023-01-13T12:03:08.306Z,102216.91
2023-01-13T12:04:26.214Z,102222.72
2023-01-13T12:05:37.248Z,102213.47
2023-01-13T12:06:43.537Z,102212.09
2023-01-13T12:07:56.544Z,102218.53
2023-01-13T12:09:31.587Z,102223.25
2023-01-13T12:10:45.951Z,102220.88
2023-01-13T12:12:23.022Z,102216.66
2023-01-13T12:13:39.073Z,102223.94
2023-01-13T12:14:55.465Z,102221.91
2023-01-13T12:16:24.068Z,102227.53
2023-01-13T12:17:33.391Z,102228.84
2023-01-13T12:18:56.777Z,102228.34
2023-01-13T12:20:18.636Z,102222.72
2023-01-13T12:21:22.733Z,102215.59
2023-01-13T12:22:29.216Z,102221.44
2023-01-13T12:23:35.766Z,102215.88
2023-01-13T12:24:45.777Z,102224.59
2023-01-13T12:25:53.075Z,102211.09
2023-01-13T12:26:59.838Z,102207.03
2023-01-13T12:28:08.327Z,102204.63
2023-01-13T12:29:15.963Z,102210.75
2023-01-13T12:30:27.457Z,102211.84
2023-01-13T12:31:33.059Z,102211.50
2023-01-13T12:32:39.601Z,102207.06
2023-01-13T16:59:41.864Z,102255.75
2023-01-13T17:00:49.886Z,102258.81
2023-01-13T17:01:55.160Z,102255.00
2023-01-13T17:02:59.006Z,102258.50
2023-01-13T17:04:02.855Z,102254.88
2023-01-13T17:05:05.999Z,102254.31
2023-01-13T17:06:12.716Z,102255.75
2023-01-13T17:07:19.108Z,102255.94
2023-01-13T17:08:22.851Z,102257.56
2023-01-13T17:09:29.257Z,102248.03
2023-01-13T17:10:38.831Z,102248.81
2023-01-13T17:11:43.828Z,102250.50
2023-01-13T17:12:47.010Z,102252.31
2023-01-13T17:13:51.822Z,102253.50
2023-01-13T17:14:54.502Z,102260.06
2023-01-13T17:15:59.218Z,102260.31
2023-01-13T17:17:02.365Z,102264.81
2023-01-13T17:18:04.683Z,102261.00
2023-01-13T17:19:09.252Z,102262.03